createdAt,value
2023-12-17T00:01:31.737Z,91308.75
2023-12-17T00:04:00.195Z,91310.48
2023-12-17T00:06:29.218Z,91299.96
2023-12-17T00:08:57.206Z,91294.11
2023-12-17T00:11:25.746Z,91292.77
2023-12-17T00:13:54.667Z,91287.98
2023-12-17T00:16:22.739Z,91286.60
2023-12-17T00:18:51.323Z,91281.48
2023-12-17T00:21:19.822Z,91278.23
2023-12-17T00:23:47.687Z,91283.25
2023-12-17T00:26:15.930Z,91283.38
2023-12-17T00:28:44.196Z,91287.11
2023-12-17T00:31:12.755Z,91288.02
2023-12-17T00:33:41.034Z,91289.16
2023-12-17T00:36:10.087Z,91289.77
2023-12-17T00:38:38.286Z,91289.46
2023-12-17T00:41:06.701Z,91284.95
2023-12-17T00:43:37.236Z,91283.52
2023-12-17T00:46:05.686Z,91281.11
2023-12-17T00:48:34.112Z,91279.65
2023-12-17T00:51:03.635Z,91281.14
2023-12-17T00:53:31.991Z,91283.51
2023-12-17T00:56:01.289Z,91280.88
2023-12-17T00:58:29.806Z,91282.69
2023-12-17T01:00:58.247Z,91280.59
2023-12-17T01:03:26.446Z,91283.89
2023-12-17T01:05:54.662Z,91286.55
2023-12-17T01:08:23.567Z,91284.56
2023-12-17T01:10:51.653Z,91281.19
2023-12-17T01:13:19.940Z,91276.06
2023-12-17T01:15:48.023Z,91263.48
2023-12-17T01:18:16.599Z,91259.43
2023-12-17T01:20:45.239Z,91265.14
2023-12-17T01:23:13.238Z,91271.50
2023-12-17T01:25:41.806Z,91274.80
2023-12-17T01:28:09.800Z,91266.00
2023-12-17T01:30:38.360Z,91254.95
2023-12-17T01:33:06.890Z,91257.48
2023-12-17T01:35:34.571Z,91261.42
2023-12-17T01:38:02.473Z,91270.31
2023-12-17T01:43:59.042Z,91258.63
2023-12-17T01:46:28.668Z,91259.42
2023-12-17T01:48:56.940Z,91267.72
2023-12-17T01:51:25.381Z,91268.94
2023-12-17T01:53:55.120Z,91266.48
2023-12-17T01:56:23.721Z,91254.33
2023-12-17T01:58:52.359Z,91248.77
2023-12-17T02:01:20.373Z,91242.16
2023-12-17T02:03:48.243Z,91246.65
2023-12-17T02:06:16.051Z,91245.29
2023-12-17T02:08:43.839Z,91241.06
2023-12-17T02:11:11.460Z,91240.09
2023-12-17T02:13:39.325Z,91239.84
2023-12-17T02:19:44.881Z,91247.30
2023-12-17T02:22:13.143Z,91248.73
2023-12-17T02:24:42.023Z,91245.63
2023-12-17T02:27:10.308Z,91238.11
2023-12-17T02:29:40.102Z,91232.69
2023-12-17T02:32:09.267Z,91235.94
2023-12-17T02:34:37.341Z,91220.70
2023-12-17T02:37:05.748Z,91214.95
2023-12-17T02:39:34.050Z,91218.23
2023-12-17T02:42:02.124Z,91226.71
2023-12-17T02:44:30.334Z,91228.20
2023-12-17T02:46:59.684Z,91229.15
2023-12-17T02:49:28.817Z,91218.69
2023-12-17T02:51:56.893Z,91208.70
2023-12-17T02:54:25.261Z,91193.91
2023-12-17T02:56:53.752Z,91189.77
2023-12-17T02:59:21.922Z,91198.55
2023-12-17T03:01:49.745Z,91205.92
2023-12-17T03:04:18.339Z,91209.31
2023-12-17T03:06:46.938Z,91201.36
2023-12-17T03:09:15.183Z,91203.57
2023-12-17T03:11:44.524Z,91197.86
2023-12-17T03:14:12.696Z,91187.39
2023-12-17T03:16:44.398Z,91183.35
2023-12-17T03:19:12.810Z,91187.45
2023-12-17T03:21:42.224Z,91188.88
2023-12-17T03:24:10.295Z,91190.48
2023-12-17T03:26:39.433Z,91186.42
2023-12-17T03:29:07.451Z,91180.84
2023-12-17T03:31:35.427Z,91185.42
2023-12-17T03:34:03.556Z,91188.40
2023-12-17T03:36:32.165Z,91189.90
2023-12-17T03:39:00.477Z,91187.41
2023-12-17T03:41:29.941Z,91189.05
2023-12-17T03:43:58.831Z,91211.32
2023-12-17T03:46:28.004Z,91209.86
2023-12-17T03:48:56.433Z,91202.52
2023-12-17T03:51:24.618Z,91195.42
2023-12-17T03:53:53.245Z,91190.34
2023-12-17T03:56:24.411Z,91193.41
2023-12-17T03:58:52.995Z,91196.09
2023-12-17T04:01:21.056Z,91203.64
2023-12-17T04:03:49.103Z,91203.83
2023-12-17T04:06:17.463Z,91204.48
2023-12-17T04:08:46.998Z,91209.51
2023-12-17T04:11:15.093Z,91206.75
2023-12-17T04:13:44.294Z,91210.17
2023-12-17T04:16:12.603Z,91218.69
2023-12-17T04:18:40.668Z,91217.51
2023-12-17T04:21:08.958Z,91209.97
2023-12-17T04:23:38.423Z,91206.92
2023-12-17T04:26:07.017Z,91209.09
2023-12-17T04:28:35.278Z,91214.81
2023-12-17T04:31:03.408Z,91220.73
2023-12-17T04:33:33.791Z,91221.39
2023-12-17T04:36:02.586Z,91217.36
2023-12-17T04:38:31.567Z,91210.33
2023-12-17T04:40:59.728Z,91211.38
2023-12-17T04:43:28.110Z,91212.38
2023-12-17T04:45:57.146Z,91206.27
2023-12-17T04:48:25.683Z,91206.23
2023-12-17T04:50:53.699Z,91207.18
2023-12-17T04:53:21.837Z,91212.35
2023-12-17T04:55:50.017Z,91212.98
2023-12-17T04:58:18.277Z,91200.76
2023-12-17T05:00:46.417Z,91191.63
2023-12-17T05:03:14.834Z,91188.71
2023-12-17T05:05:43.323Z,91191.60
2023-12-17T05:08:11.453Z,91193.88
2023-12-17T05:10:40.076Z,91195.02
2023-12-17T05:13:08.035Z,91195.13
2023-12-17T05:19:03.928Z,91198.92
2023-12-17T05:21:32.282Z,91195.10
2023-12-17T05:24:00.294Z,91192.40
2023-12-17T05:26:28.500Z,91190.96
2023-12-17T05:28:56.793Z,91190.73
2023-12-17T05:31:25.338Z,91198.31
2023-12-17T05:33:54.457Z,91205.95
2023-12-17T05:36:23.078Z,91211.66
2023-12-17T05:38:52.797Z,91211.09
2023-12-17T05:41:21.028Z,91213.77
2023-12-17T05:43:49.628Z,91210.64
2023-12-17T05:46:18.293Z,91210.55
2023-12-17T05:48:46.469Z,91212.61
2023-12-17T05:51:14.690Z,91212.86
